createdAt,value
2017-05-31T00:01:58.529Z,22.23
2017-05-31T00:04:26.772Z,23.63
2017-05-31T00:06:54.988Z,24.33
2017-05-31T00:09:23.254Z,22.85
2017-05-31T00:11:51.530Z,23.23
2017-05-31T00:14:19.771Z,24.53
2017-05-31T00:16:47.999Z,24.50
2017-05-31T00:19:16.209Z,24.80
2017-05-31T00:21:44.539Z,24.80
2017-05-31T00:24:12.803Z,24.94
2017-05-31T00:26:41.091Z,23.48
2017-05-31T00:29:09.307Z,24.66
2017-05-31T00:31:37.539Z,22.80
2017-05-31T00:34:05.755Z,22.52
2017-05-31T00:36:33.990Z,22.60
2017-05-31T00:39:02.207Z,21.78
2017-05-31T00:41:30.429Z,21.67
2017-05-31T00:43:58.656Z,21.97
2017-05-31T00:46:26.983Z,21.67
2017-05-31T00:48:55.187Z,21.07
2017-05-31T00:51:23.423Z,22.02
2017-05-31T00:53:51.703Z,21.92
2017-05-31T00:56:19.944Z,21.40
2017-05-31T00:58:48.353Z,22.15
2017-05-31T01:01:16.555Z,22.07
2017-05-31T01:03:44.785Z,22.48
2017-05-31T01:06:12.994Z,22.53
2017-05-31T01:08:41.227Z,23.53
2017-05-31T01:11:09.439Z,22.75
2017-05-31T01:13:37.657Z,22.63
2017-05-31T01:16:05.871Z,22.28
2017-05-31T01:18:34.087Z,21.47
2017-05-31T01:21:02.307Z,21.28
2017-05-31T01:23:30.524Z,21.00
2017-05-31T01:25:58.788Z,20.04
2017-05-31T01:28:27.024Z,21.32
2017-05-31T01:30:55.226Z,22.04
2017-05-31T01:33:23.503Z,21.92
2017-05-31T01:35:51.767Z,22.30
2017-05-31T01:38:20.050Z,21.63
2017-05-31T01:40:48.335Z,21.70
2017-05-31T01:43:16.609Z,22.10
2017-05-31T01:45:44.821Z,23.75
2017-05-31T01:48:13.150Z,22.78
2017-05-31T01:50:41.423Z,22.10
2017-05-31T01:53:09.712Z,21.60
2017-05-31T01:55:38.075Z,23.34
2017-05-31T01:58:06.299Z,23.48
2017-05-31T02:00:34.523Z,24.73
2017-05-31T02:03:02.802Z,22.92
2017-05-31T02:05:31.073Z,24.45
2017-05-31T02:07:59.295Z,22.23
2017-05-31T02:10:27.521Z,22.28
2017-05-31T02:12:55.808Z,24.25
2017-05-31T02:15:24.018Z,23.16
2017-05-31T02:17:52.256Z,22.48
2017-05-31T02:20:20.519Z,22.50
2017-05-31T02:22:48.726Z,22.45
2017-05-31T02:25:16.939Z,22.42
2017-05-31T02:27:45.184Z,22.42
2017-05-31T02:30:13.395Z,22.08
2017-05-31T02:32:41.700Z,22.38
2017-05-31T02:35:09.971Z,21.20
2017-05-31T02:37:38.224Z,22.33
2017-05-31T02:40:06.434Z,21.10
2017-05-31T02:42:34.769Z,21.83
2017-05-31T02:45:02.978Z,24.85
2017-05-31T02:47:31.249Z,25.58
2017-05-31T02:49:59.487Z,26.80
2017-05-31T02:52:27.803Z,27.57
2017-05-31T02:54:56.074Z,29.65
2017-05-31T02:57:24.351Z,27.70
2017-05-31T02:59:52.555Z,29.06
2017-05-31T03:02:20.798Z,29.57
2017-05-31T03:04:49.010Z,29.83
2017-05-31T03:07:17.212Z,28.78
2017-05-31T03:09:45.454Z,29.77
2017-05-31T03:12:13.688Z,27.73
2017-05-31T03:14:41.971Z,28.67
2017-05-31T03:17:10.200Z,28.32
2017-05-31T03:19:38.433Z,29.73
2017-05-31T03:22:06.656Z,28.83
2017-05-31T03:24:34.864Z,28.80
2017-05-31T03:27:03.082Z,30.35
2017-05-31T03:29:31.307Z,28.82
2017-05-31T03:31:59.578Z,28.35
2017-05-31T03:34:27.843Z,30.83
2017-05-31T03:36:56.049Z,29.45
2017-05-31T03:39:24.283Z,29.82
2017-05-31T03:41:52.500Z,29.28
2017-05-31T03:44:20.740Z,28.52
2017-05-31T03:46:48.953Z,28.70
2017-05-31T03:49:17.203Z,29.03
2017-05-31T03:51:45.463Z,29.80
2017-05-31T03:54:13.697Z,27.52
2017-05-31T03:56:41.916Z,28.50
2017-05-31T03:59:10.144Z,28.45
2017-05-31T04:01:38.472Z,29.85
2017-05-31T04:04:06.703Z,28.50
2017-05-31T04:06:34.932Z,28.62
2017-05-31T04:09:03.148Z,28.53
2017-05-31T04:11:31.362Z,27.82
2017-05-31T04:13:59.651Z,28.75
2017-05-31T04:16:27.862Z,28.85
2017-05-31T04:18:56.108Z,27.22
2017-05-31T04:21:24.358Z,28.07
2017-05-31T04:23:52.757Z,28.92
2017-05-31T04:26:21.003Z,28.05
2017-05-31T04:28:49.335Z,28.07
2017-05-31T04:31:17.588Z,28.48
2017-05-31T04:33:47.870Z,29.28
2017-05-31T04:36:16.171Z,27.82
2017-05-31T04:38:44.407Z,28.40
2017-05-31T04:41:12.618Z,27.67
2017-05-31T04:43:40.858Z,28.73
2017-05-31T04:46:09.064Z,27.58
2017-05-31T04:48:37.285Z,28.93
2017-05-31T04:51:05.521Z,27.78
2017-05-31T04:53:33.762Z,29.78
2017-05-31T04:56:01.987Z,27.50
2017-05-31T04:58:30.243Z,26.68
2017-05-31T05:00:58.474Z,23.80
2017-05-31T05:03:26.820Z,23.90
2017-05-31T05:05:55.059Z,21.38
2017-05-31T05:08:23.258Z,19.24
2017-05-31T05:10:51.503Z,17.85
2017-05-31T05:13:19.798Z,17.50
2017-05-31T05:15:48.073Z,15.15
2017-05-31T05:18:16.317Z,12.90
2017-05-31T05:20:44.578Z,12.47
2017-05-31T05:23:12.793Z,9.15
2017-05-31T05:25:41.182Z,8.30
2017-05-31T05:28:09.468Z,8.28
2017-05-31T05:30:37.845Z,9.20
2017-05-31T05:33:06.098Z,7.60
2017-05-31T05:35:34.353Z,8.33
2017-05-31T05:38:02.646Z,7.00
2017-05-31T05:40:30.935Z,6.70
2017-05-31T05:42:59.139Z,7.12
2017-05-31T05:45:27.419Z,5.68
2017-05-31T05:47:55.641Z,5.02
2017-05-31T05:50:23.981Z,5.77
2017-05-31T05:52:52.178Z,6.14
2017-05-31T05:55:20.482Z,5.33
2017-05-31T05:57:48.727Z,5.58
2017-05-31T06:00:17.218Z,3.95
2017-05-31T06:02:45.527Z,4.10
2017-05-31T06:05:13.758Z,4.40
2017-05-31T06:07:41.963Z,4.15
2017-05-31T06:10:10.340Z,3.40
2017-05-31T06:12:38.612Z,3.28
2017-05-31T06:15:06.845Z,3.20
2017-05-31T06:17:35.071Z,3.40
2017-05-31T06:20:03.351Z,2.82
2017-05-31T06:22:31.617Z,2.77
2017-05-31T06:24:59.857Z,2.70
2017-05-31T06:27:28.069Z,2.60
2017-05-31T06:29:56.407Z,2.50
2017-05-31T06:32:24.604Z,2.60
2017-05-31T06:34:53.083Z,2.57
2017-05-31T06:37:21.292Z,2.65
2017-05-31T06:39:49.532Z,3.07
2017-05-31T06:42:17.834Z,3.00
2017-05-31T06:44:46.038Z,3.20
2017-05-31T06:47:14.359Z,2.83
2017-05-31T06:49:42.583Z,2.93
2017-05-31T06:52:10.802Z,2.88
2017-05-31T06:54:39.019Z,3.30
2017-05-31T06:57:07.260Z,3.10
2017-05-31T06:59:35.487Z,3.07
2017-05-31T07:02:03.703Z,2.83
2017-05-31T07:04:31.903Z,2.57
2017-05-31T07:07:00.129Z,2.80
2017-05-31T07:09:28.331Z,2.55
2017-05-31T07:11:56.571Z,2.50
2017-05-31T07:14:24.910Z,2.60
2017-05-31T07:16:53.157Z,2.68
2017-05-31T07:19:21.525Z,2.62
2017-05-31T07:21:49.737Z,2.62
2017-05-31T07:24:18.015Z,2.50
2017-05-31T07:26:46.332Z,2.40
2017-05-31T07:29:14.530Z,2.62
2017-05-31T07:31:42.785Z,2.70
2017-05-31T07:34:11.093Z,3.00
2017-05-31T07:36:39.771Z,2.35
2017-05-31T07:39:07.991Z,2.28
2017-05-31T07:41:36.212Z,2.13
2017-05-31T07:44:04.426Z,2.23
2017-05-31T07:46:32.669Z,2.10
2017-05-31T07:49:00.948Z,1.70
2017-05-31T07:51:29.163Z,1.82
2017-05-31T07:53:57.410Z,1.90
2017-05-31T07:56:25.619Z,1.60
2017-05-31T07:58:53.835Z,2.00
2017-05-31T08:01:22.071Z,1.90
2017-05-31T08:03:50.271Z,2.05
2017-05-31T08:06:18.575Z,1.78
2017-05-31T08:08:46.803Z,1.53
2017-05-31T08:11:15.012Z,1.80
2017-05-31T08:13:43.283Z,1.73
2017-05-31T08:16:11.593Z,1.42
2017-05-31T08:18:39.863Z,1.90
2017-05-31T08:21:08.226Z,1.82
2017-05-31T08:26:27.864Z,1.82
2017-05-31T08:28:56.083Z,1.72
2017-05-31T08:31:24.311Z,1.60
2017-05-31T08:33:52.523Z,1.65
2017-05-31T08:36:20.856Z,2.03
2017-05-31T08:38:49.011Z,1.80
2017-05-31T08:41:17.235Z,1.93
2017-05-31T08:43:45.473Z,1.65
2017-05-31T08:46:13.702Z,1.70
2017-05-31T08:48:41.143Z,1.60
2017-05-31T08:51:08.596Z,1.90
2017-05-31T08:53:36.989Z,1.40
2017-05-31T08:56:05.229Z,1.60
2017-05-31T08:58:33.436Z,1.40
2017-05-31T09:01:01.668Z,1.32
2017-05-31T09:03:29.877Z,1.70
2017-05-31T09:05:58.104Z,1.70
2017-05-31T09:08:26.336Z,1.80
2017-05-31T09:10:54.536Z,1.90
2017-05-31T09:13:22.819Z,1.68
2017-05-31T09:15:51.063Z,2.20
2017-05-31T09:18:19.291Z,2.05
2017-05-31T09:20:47.625Z,1.95
2017-05-31T09:23:15.839Z,1.88
2017-05-31T09:25:44.059Z,2.15
2017-05-31T09:28:12.290Z,2.48
2017-05-31T09:30:40.510Z,2.00
2017-05-31T09:33:08.913Z,2.30
2017-05-31T09:35:37.278Z,2.40
2017-05-31T09:38:04.819Z,2.38
2017-05-31T09:40:33.016Z,2.30
2017-05-31T09:43:01.244Z,2.62
2017-05-31T09:45:29.455Z,2.40
2017-05-31T09:47:57.679Z,2.48
2017-05-31T09:50:25.904Z,2.47
2017-05-31T09:52:54.136Z,2.22
2017-05-31T09:55:21.797Z,2.53
2017-05-31T09:57:50.217Z,2.50
2017-05-31T10:00:18.419Z,2.30
2017-05-31T10:02:46.679Z,2.00
2017-05-31T10:05:14.940Z,2.05
2017-05-31T10:07:42.436Z,2.42
2017-05-31T10:10:10.635Z,2.60
2017-05-31T10:12:38.869Z,2.08
2017-05-31T10:15:07.125Z,2.80
2017-05-31T10:17:35.379Z,2.42
2017-05-31T10:20:02.834Z,2.43
2017-05-31T10:22:31.047Z,2.80
2017-05-31T10:24:59.267Z,2.70
2017-05-31T10:27:27.663Z,2.27
2017-05-31T10:29:56.152Z,2.80
2017-05-31T10:32:24.427Z,2.52
2017-05-31T10:34:52.795Z,2.30
2017-05-31T10:37:21.010Z,2.40
2017-05-31T10:39:49.217Z,2.80
2017-05-31T10:42:17.519Z,2.43
2017-05-31T10:44:46.081Z,3.00
2017-05-31T10:47:14.314Z,2.90
2017-05-31T10:49:42.525Z,3.10
2017-05-31T10:52:10.915Z,3.05
2017-05-31T10:54:39.119Z,2.76
2017-05-31T10:57:07.467Z,2.50
2017-05-31T10:59:35.707Z,2.50
2017-05-31T11:02:03.991Z,2.73
2017-05-31T11:04:32.315Z,3.27
2017-05-31T11:07:00.535Z,2.53
2017-05-31T11:09:28.756Z,2.45
2017-05-31T11:11:57.249Z,2.80
2017-05-31T11:14:25.447Z,2.38
2017-05-31T11:16:53.692Z,2.58
2017-05-31T11:19:21.908Z,2.90
2017-05-31T11:21:50.114Z,2.63
2017-05-31T11:24:18.411Z,3.25
2017-05-31T11:26:46.784Z,2.77
2017-05-31T11:29:15.012Z,2.70
2017-05-31T11:31:43.231Z,2.30
2017-05-31T11:34:11.446Z,2.83
2017-05-31T11:36:39.813Z,2.98
2017-05-31T11:39:08.071Z,2.50
2017-05-31T11:41:35.627Z,2.68
2017-05-31T11:44:03.895Z,2.92
2017-05-31T11:46:32.227Z,3.12
2017-05-31T11:49:00.503Z,2.53
2017-05-31T11:51:28.724Z,2.73
2017-05-31T11:53:57.103Z,2.90
2017-05-31T11:56:25.307Z,3.42
2017-05-31T11:58:53.517Z,2.72
2017-05-31T12:01:21.762Z,2.52
2017-05-31T12:03:50.015Z,2.63
2017-05-31T12:06:18.239Z,2.70
2017-05-31T12:08:46.471Z,2.57
2017-05-31T12:11:14.823Z,3.15
2017-05-31T12:13:43.236Z,2.40
2017-05-31T12:16:11.427Z,3.20
2017-05-31T12:18:39.671Z,2.60
2017-05-31T12:21:07.927Z,2.70
2017-05-31T12:23:36.212Z,2.95
2017-05-31T12:26:03.764Z,3.02
2017-05-31T12:28:32.038Z,2.95
2017-05-31T12:31:00.263Z,2.60
2017-05-31T12:33:28.481Z,2.70
2017-05-31T12:35:56.678Z,2.60
2017-05-31T12:38:24.923Z,2.30
2017-05-31T12:40:53.224Z,2.60
2017-05-31T12:43:21.475Z,3.32
2017-05-31T12:45:49.672Z,2.87
2017-05-31T12:48:17.943Z,2.88
2017-05-31T12:50:46.155Z,2.70
2017-05-31T12:53:14.355Z,2.23
2017-05-31T12:55:42.579Z,2.50
2017-05-31T12:58:10.910Z,2.70
2017-05-31T13:00:39.131Z,2.90
2017-05-31T13:03:07.335Z,2.72
2017-05-31T13:05:35.547Z,2.90
2017-05-31T13:08:03.759Z,3.00
2017-05-31T13:10:32.048Z,2.80
2017-05-31T13:13:00.390Z,2.68
2017-05-31T13:15:28.651Z,2.50
2017-05-31T13:17:57.013Z,2.72
2017-05-31T13:20:25.223Z,2.63
2017-05-31T13:22:53.493Z,2.50
2017-05-31T13:25:21.731Z,2.50
2017-05-31T13:27:49.999Z,2.50
2017-05-31T13:30:18.218Z,2.32
2017-05-31T13:32:46.808Z,2.70
2017-05-31T13:35:15.011Z,2.82
2017-05-31T13:37:43.256Z,2.75
2017-05-31T13:40:11.508Z,2.30
2017-05-31T13:42:39.791Z,2.80
2017-05-31T13:45:08.139Z,2.40
2017-05-31T13:47:36.319Z,2.80
2017-05-31T13:50:04.615Z,2.62
2017-05-31T13:52:32.884Z,2.50
2017-05-31T13:55:01.137Z,2.90
2017-05-31T13:57:29.356Z,3.35
2017-05-31T13:59:57.607Z,2.62
2017-05-31T14:02:25.969Z,2.72
2017-05-31T14:04:54.205Z,2.52
2017-05-31T14:07:22.405Z,3.50
2017-05-31T14:09:50.623Z,2.70
2017-05-31T14:12:18.886Z,2.33
2017-05-31T14:14:47.095Z,3.08
2017-05-31T14:17:15.343Z,3.40
2017-05-31T14:19:43.733Z,2.65
2017-05-31T14:22:12.001Z,2.70
2017-05-31T14:24:40.230Z,2.50
2017-05-31T14:27:08.436Z,3.40
2017-05-31T14:29:36.690Z,3.00
2017-05-31T14:32:04.901Z,2.68
2017-05-31T14:34:33.213Z,2.85
2017-05-31T14:37:01.618Z,2.83
2017-05-31T14:39:29.837Z,3.03
2017-05-31T14:41:58.044Z,2.58
2017-05-31T14:44:26.247Z,2.30
2017-05-31T14:46:54.649Z,2.73
2017-05-31T14:49:22.859Z,2.70
2017-05-31T14:51:51.087Z,2.67
2017-05-31T14:54:19.363Z,3.00
2017-05-31T14:56:47.587Z,2.50
2017-05-31T14:59:15.802Z,2.73
2017-05-31T15:01:44.159Z,2.67
2017-05-31T15:04:12.467Z,2.60
2017-05-31T15:06:40.730Z,3.10
2017-05-31T15:09:08.939Z,2.78
2017-05-31T15:11:37.177Z,2.22
2017-05-31T15:14:05.380Z,2.80
2017-05-31T15:16:33.743Z,2.75
2017-05-31T15:19:02.002Z,2.78
2017-05-31T15:21:30.276Z,2.23
2017-05-31T15:23:58.491Z,3.65
2017-05-31T15:26:26.731Z,2.98
2017-05-31T15:28:55.031Z,3.25
2017-05-31T15:31:23.392Z,2.62
2017-05-31T15:33:51.689Z,3.17
2017-05-31T15:36:19.954Z,3.25
2017-05-31T15:38:48.198Z,2.42
2017-05-31T15:41:16.435Z,2.97
2017-05-31T15:43:44.766Z,2.90
2017-05-31T15:46:12.204Z,2.88
2017-05-31T15:48:40.499Z,2.50
2017-05-31T15:51:08.721Z,2.75
2017-05-31T15:53:36.974Z,3.14
2017-05-31T15:56:05.213Z,2.40
2017-05-31T15:58:33.427Z,3.02
2017-05-31T16:01:01.668Z,3.15
2017-05-31T16:03:29.884Z,2.53
2017-05-31T16:05:58.134Z,2.70
2017-05-31T16:08:26.510Z,3.15
2017-05-31T16:10:54.068Z,2.60
2017-05-31T16:13:22.343Z,2.45
2017-05-31T16:15:50.873Z,2.60
2017-05-31T16:18:19.088Z,2.60
2017-05-31T16:20:47.379Z,2.97
2017-05-31T16:23:15.578Z,2.35
2017-05-31T16:25:43.823Z,2.50
2017-05-31T16:28:12.088Z,2.88
2017-05-31T16:30:40.343Z,2.80
2017-05-31T16:33:08.614Z,3.00
2017-05-31T16:35:36.934Z,3.43
2017-05-31T16:38:05.119Z,3.05
2017-05-31T16:40:33.472Z,3.42
2017-05-31T16:43:01.682Z,2.70
2017-05-31T16:45:29.916Z,2.80
2017-05-31T16:47:58.275Z,3.30
2017-05-31T16:50:26.507Z,3.05
2017-05-31T16:52:54.745Z,3.40
2017-05-31T16:55:22.947Z,2.50
2017-05-31T16:57:51.239Z,2.47
2017-05-31T17:00:19.475Z,2.60
2017-05-31T17:02:47.676Z,3.13
2017-05-31T17:05:15.886Z,2.40
2017-05-31T17:07:44.115Z,2.88
2017-05-31T17:10:12.339Z,2.80
2017-05-31T17:12:40.656Z,2.80
2017-05-31T17:15:08.953Z,2.68
2017-05-31T17:17:37.184Z,2.70
2017-05-31T17:20:05.781Z,2.27
2017-05-31T17:22:33.999Z,2.77
2017-05-31T17:25:02.323Z,2.52
2017-05-31T17:27:30.609Z,2.60
2017-05-31T17:29:58.871Z,2.72
2017-05-31T17:32:27.083Z,2.22
2017-05-31T17:34:55.311Z,2.60
2017-05-31T17:37:23.607Z,2.87
2017-05-31T17:39:51.950Z,2.78
2017-05-31T17:42:20.163Z,2.68
2017-05-31T17:44:48.371Z,2.70
2017-05-31T17:47:16.750Z,2.45
2017-05-31T17:49:44.971Z,2.48
2017-05-31T17:52:13.246Z,3.23
2017-05-31T17:54:41.551Z,2.92
2017-05-31T17:57:09.772Z,3.08
2017-05-31T17:59:38.119Z,3.18
2017-05-31T18:02:06.355Z,2.90
2017-05-31T18:04:34.634Z,3.10
2017-05-31T18:07:02.887Z,3.02
2017-05-31T18:09:31.103Z,3.32
2017-05-31T18:11:59.469Z,3.10
2017-05-31T18:14:27.736Z,3.05
2017-05-31T18:16:55.971Z,2.98
2017-05-31T18:19:24.184Z,3.07
2017-05-31T18:21:52.394Z,2.80
2017-05-31T18:24:20.604Z,3.20
2017-05-31T18:26:48.807Z,3.25
2017-05-31T18:29:17.023Z,2.98
2017-05-31T18:31:45.370Z,3.60
2017-05-31T18:34:13.571Z,3.27
2017-05-31T18:36:41.776Z,2.92
2017-05-31T18:39:09.990Z,3.13
2017-05-31T18:41:38.215Z,3.20
2017-05-31T18:44:06.503Z,3.40
2017-05-31T18:46:34.703Z,3.32
2017-05-31T18:49:03.151Z,3.53
2017-05-31T18:51:31.347Z,3.02
2017-05-31T18:53:59.567Z,3.68
2017-05-31T18:56:27.825Z,3.00
2017-05-31T18:58:56.082Z,3.00
2017-05-31T19:01:24.400Z,3.33
2017-05-31T19:03:52.636Z,3.47
2017-05-31T19:06:20.839Z,3.10
2017-05-31T19:08:49.063Z,3.37
2017-05-31T19:11:17.296Z,3.10
2017-05-31T19:13:45.541Z,3.02
2017-05-31T19:16:13.751Z,3.40
2017-05-31T19:18:42.033Z,3.12
2017-05-31T19:21:10.243Z,3.17
2017-05-31T19:23:38.474Z,3.27
2017-05-31T19:26:06.711Z,3.43
2017-05-31T19:28:34.936Z,3.23
2017-05-31T19:31:03.161Z,2.85
2017-05-31T19:33:31.367Z,3.10
2017-05-31T19:35:59.585Z,3.70
2017-05-31T19:38:27.887Z,3.48
2017-05-31T19:40:56.086Z,3.42
2017-05-31T19:43:24.312Z,3.27
2017-05-31T19:45:52.568Z,3.32
2017-05-31T19:48:20.867Z,3.48
2017-05-31T19:50:49.074Z,3.20
2017-05-31T19:53:17.327Z,3.48
2017-05-31T19:55:45.599Z,3.95
2017-05-31T19:58:14.768Z,3.66
2017-05-31T20:00:42.983Z,3.95
2017-05-31T20:03:11.197Z,3.88
2017-05-31T20:05:39.427Z,4.63
2017-05-31T20:08:07.785Z,3.73
2017-05-31T20:10:35.999Z,4.25
2017-05-31T20:13:04.214Z,4.50
2017-05-31T20:15:32.448Z,4.50
2017-05-31T20:18:00.787Z,4.77
2017-05-31T20:20:29.034Z,4.70
2017-05-31T20:22:57.298Z,4.72
2017-05-31T20:25:25.555Z,4.33
2017-05-31T20:27:53.755Z,4.70
2017-05-31T20:30:21.978Z,4.33
2017-05-31T20:32:50.203Z,4.12
2017-05-31T20:35:18.507Z,4.57
2017-05-31T20:37:46.723Z,4.40
2017-05-31T20:40:14.935Z,4.60
2017-05-31T20:42:43.151Z,4.48
2017-05-31T20:45:11.371Z,4.75
2017-05-31T20:47:40.372Z,4.30
2017-05-31T20:50:09.269Z,4.90
2017-05-31T20:52:37.586Z,5.27
2017-05-31T20:55:05.806Z,4.82
2017-05-31T20:57:34.119Z,4.60
2017-05-31T21:00:02.342Z,5.42
2017-05-31T21:02:30.601Z,4.84
2017-05-31T21:04:58.841Z,5.45
2017-05-31T21:07:27.069Z,4.45
2017-05-31T21:09:55.303Z,4.82
2017-05-31T21:12:23.604Z,4.85
2017-05-31T21:14:52.213Z,5.70
2017-05-31T21:17:20.500Z,4.48
2017-05-31T21:19:48.737Z,5.62
2017-05-31T21:22:16.949Z,4.88
2017-05-31T21:24:45.164Z,5.40
2017-05-31T21:27:13.382Z,5.43
2017-05-31T21:29:41.613Z,5.20
2017-05-31T21:32:09.877Z,5.30
2017-05-31T21:34:38.144Z,5.12
2017-05-31T21:37:06.355Z,5.66
2017-05-31T21:39:34.596Z,5.08
2017-05-31T21:42:03.765Z,5.40
2017-05-31T21:44:32.078Z,4.77
2017-05-31T21:47:00.314Z,5.73
2017-05-31T21:49:28.543Z,5.06
2017-05-31T21:51:56.747Z,4.75
2017-05-31T21:54:25.176Z,4.97
2017-05-31T21:56:53.428Z,5.20
2017-05-31T21:59:21.762Z,5.60
2017-05-31T22:01:50.029Z,5.28
2017-05-31T22:04:18.283Z,5.78
2017-05-31T22:06:46.484Z,5.42
2017-05-31T22:09:14.695Z,5.62
2017-05-31T22:11:42.912Z,5.82
2017-05-31T22:14:11.138Z,5.82
2017-05-31T22:16:39.445Z,5.80
2017-05-31T22:19:07.740Z,5.87
2017-05-31T22:21:35.961Z,5.80
2017-05-31T22:24:04.203Z,6.40
2017-05-31T22:26:32.461Z,5.03
2017-05-31T22:29:00.662Z,5.27
2017-05-31T22:31:28.909Z,5.32
2017-05-31T22:33:57.142Z,5.78
2017-05-31T22:36:25.435Z,5.40
2017-05-31T22:38:53.647Z,5.07
2017-05-31T22:41:21.867Z,5.35
2017-05-31T22:43:50.159Z,5.70
2017-05-31T22:46:18.377Z,5.92
2017-05-31T22:48:46.580Z,5.67
2017-05-31T22:51:14.798Z,5.70
2017-05-31T22:53:43.073Z,5.67
2017-05-31T22:56:11.303Z,6.52
2017-05-31T22:58:39.507Z,5.85
2017-05-31T23:01:07.743Z,6.52
2017-05-31T23:03:36.062Z,6.10
2017-05-31T23:06:04.339Z,5.63
2017-05-31T23:08:32.559Z,5.40
2017-05-31T23:11:00.791Z,6.27
2017-05-31T23:13:29.022Z,6.25
2017-05-31T23:15:57.242Z,6.62
2017-05-31T23:18:25.471Z,6.15
2017-05-31T23:20:53.683Z,6.28
2017-05-31T23:23:21.951Z,6.40
2017-05-31T23:25:50.176Z,7.08
2017-05-31T23:28:18.383Z,5.57
2017-05-31T23:30:46.607Z,6.77
2017-05-31T23:33:14.833Z,7.27
2017-05-31T23:35:43.127Z,6.85
2017-05-31T23:38:11.345Z,6.42
2017-05-31T23:40:39.547Z,6.80
2017-05-31T23:43:07.774Z,6.80
2017-05-31T23:45:35.983Z,6.45
2017-05-31T23:48:04.223Z,6.10
2017-05-31T23:50:32.484Z,6.08
2017-05-31T23:53:00.707Z,7.00
2017-05-31T23:55:29.015Z,6.75
2017-05-31T23:57:58.178Z,7.18
